sensor_id;sensor_type;location;lat;lon;timestamp;pressure;altitude;pressure_sealevel;temperature;humidity
51359;BME280;37448;51.588;7.248;2023-02-02T00:00:01;101383.25;;;3.63;97.74
51359;BME280;37448;51.588;7.248;2023-02-02T00:02:01;101385.91;;;3.66;98.12
51359;BME280;37448;51.588;7.248;2023-02-02T00:04:02;101387.59;;;3.65;98.20
51359;BME280;37448;51.588;7.248;2023-02-02T00:06:03;101390.19;;;3.65;98.73
51359;BME280;37448;51.588;7.248;2023-02-02T00:08:04;101389.34;;;3.66;98.30
51359;BME280;37448;51.588;7.248;2023-02-02T00:10:04;101387.59;;;3.65;97.88
51359;BME280;37448;51.588;7.248;2023-02-02T00:12:05;101389.38;;;3.68;98.34
51359;BME280;37448;51.588;7.248;2023-02-02T00:14:05;101385.91;;;3.66;97.95
51359;BME280;37448;51.588;7.248;2023-02-02T00:18:26;101387.59;;;3.65;98.01
51359;BME280;37448;51.588;7.248;2023-02-02T00:20:26;101397.97;;;3.67;98.29
51359;BME280;37448;51.588;7.248;2023-02-02T00:22:27;101389.38;;;3.68;98.62
51359;BME280;37448;51.588;7.248;2023-02-02T00:24:27;101380.75;;;3.67;98.56
51359;BME280;37448;51.588;7.248;2023-02-02T00:26:28;101384.16;;;3.66;98.51
51359;BME280;37448;51.588;7.248;2023-02-02T00:28:28;101375.56;;;3.66;99.12
51359;BME280;37448;51.588;7.248;2023-02-02T00:30:29;101381.59;;;3.66;98.52
51359;BME280;37448;51.588;7.248;2023-02-02T00:32:29;101379.00;;;3.66;98.85
51359;BME280;37448;51.588;7.248;2023-02-02T00:34:29;101386.75;;;3.66;98.56
51359;BME280;37448;51.588;7.248;2023-02-02T00:36:30;101382.47;;;3.67;98.99
51359;BME280;37448;51.588;7.248;2023-02-02T00:38:30;101381.59;;;3.66;99.09
51359;BME280;37448;51.588;7.248;2023-02-02T00:40:31;101390.22;;;3.68;98.76
51359;BME280;37448;51.588;7.248;2023-02-02T00:42:32;101375.56;;;3.67;99.22
51359;BME280;37448;51.588;7.248;2023-02-02T00:44:32;101380.75;;;3.67;99.20
51359;BME280;37448;51.588;7.248;2023-02-02T00:46:51;101377.34;;;3.70;98.88
51359;BME280;37448;51.588;7.248;2023-02-02T00:48:52;101379.03;;;3.68;98.83
51359;BME280;37448;51.588;7.248;2023-02-02T00:50:52;101379.91;;;3.68;98.81
51359;BME280;37448;51.588;7.248;2023-02-02T00:52:53;101374.72;;;3.68;98.83
51359;BME280;37448;51.588;7.248;2023-02-02T00:54:53;101381.63;;;3.68;99.49
51359;BME280;37448;51.588;7.248;2023-02-02T00:56:54;101383.31;;;3.67;99.78
51359;BME280;37448;51.588;7.248;2023-02-02T00:58:54;101386.75;;;3.66;99.00
51359;BME280;37448;51.588;7.248;2023-02-02T01:00:55;101380.75;;;3.67;99.28
51359;BME280;37448;51.588;7.248;2023-02-02T01:02:55;101378.16;;;3.67;99.82
51359;BME280;37448;51.588;7.248;2023-02-02T01:04:57;101379.91;;;3.68;99.55
51359;BME280;37448;51.588;7.248;2023-02-02T01:06:57;101376.47;;;3.68;99.25
51359;BME280;37448;51.588;7.248;2023-02-02T01:08:57;101377.31;;;3.68;99.18
51359;BME280;37448;51.588;7.248;2023-02-02T01:10:58;101374.72;;;3.68;99.16
51359;BME280;37448;51.588;7.248;2023-02-02T01:12:59;101377.34;;;3.70;99.84
51359;BME280;37448;51.588;7.248;2023-02-02T01:15:00;101374.78;;;3.71;99.64
51359;BME280;37448;51.588;7.248;2023-02-02T01:17:00;101372.25;;;3.73;99.53
51359;BME280;37448;51.588;7.248;2023-02-02T01:19:01;101366.19;;;3.72;99.34
51359;BME280;37448;51.588;7.248;2023-02-02T01:21:08;101370.50;;;3.73;99.96
51359;BME280;37448;51.588;7.248;2023-02-02T01:23:09;101365.38;;;3.75;99.50
51359;BME280;37448;51.588;7.248;2023-02-02T01:25:09;101367.94;;;3.73;99.64
51359;BME280;37448;51.588;7.248;2023-02-02T01:27:10;101365.38;;;3.75;99.38
51359;BME280;37448;51.588;7.248;2023-02-02T01:29:10;101368.00;;;3.77;98.98
51359;BME280;37448;51.588;7.248;2023-02-02T01:31:19;101374.97;;;3.81;99.50
51359;BME280;37448;51.588;7.248;2023-02-02T01:33:20;101373.22;;;3.80;99.50
51359;BME280;37448;51.588;7.248;2023-02-02T01:35:20;101368.97;;;3.83;99.17
51359;BME280;37448;51.588;7.248;2023-02-02T01:37:20;101381.13;;;3.87;99.17
51359;BME280;37448;51.588;7.248;2023-02-02T01:39:21;101386.31;;;3.89;99.18
51359;BME280;37448;51.588;7.248;2023-02-02T01:41:23;101393.28;;;3.93;99.23
51359;BME280;37448;51.588;7.248;2023-02-02T01:45:44;101397.59;;;3.94;99.82
51359;BME280;37448;51.588;7.248;2023-02-02T01:47:50;101404.59;;;3.98;99.02
51359;BME280;37448;51.588;7.248;2023-02-02T01:49:52;101400.38;;;4.04;99.78
51359;BME280;37448;51.588;7.248;2023-02-02T01:51:58;101392.66;;;4.07;99.75
51359;BME280;37448;51.588;7.248;2023-02-02T01:53:58;101397.91;;;4.11;99.47
51359;BME280;37448;51.588;7.248;2023-02-02T01:56:00;101393.59;;;4.12;99.95
51359;BME280;37448;51.588;7.248;2023-02-02T01:58:06;101409.13;;;4.12;99.35
51359;BME280;37448;51.588;7.248;2023-02-02T02:00:13;101405.72;;;4.16;99.41
51359;BME280;37448;51.588;7.248;2023-02-02T02:02:14;101399.72;;;4.17;99.66
51359;BME280;37448;51.588;7.248;2023-02-02T02:04:15;101414.44;;;4.21;100.00
51359;BME280;37448;51.588;7.248;2023-02-02T02:06:18;101417.09;;;4.24;99.43
51359;BME280;37448;51.588;7.248;2023-02-02T02:08:22;101413.72;;;4.28;99.72
51359;BME280;37448;51.588;7.248;2023-02-02T02:10:23;101417.19;;;4.30;99.97
51359;BME280;37448;51.588;7.248;2023-02-02T02:12:23;101413.75;;;4.31;99.55
51359;BME280;37448;51.588;7.248;2023-02-02T02:14:24;101407.69;;;4.31;99.92
51359;BME280;37448;51.588;7.248;2023-02-02T02:22:14;101405.28;;;4.42;99.70
51359;BME280;37448;51.588;7.248;2023-02-02T02:27:21;101399.31;;;4.44;99.72
51359;BME280;37448;51.588;7.248;2023-02-02T02:29:31;101398.47;;;4.45;99.53
51359;BME280;37448;51.588;7.248;2023-02-02T02:36:29;101405.41;;;4.48;99.82
51359;BME280;37448;51.588;7.248;2023-02-02T02:40:52;101392.50;;;4.50;99.30
51359;BME280;37448;51.588;7.248;2023-02-02T02:42:58;101389.06;;;4.51;100.00
51359;BME280;37448;51.588;7.248;2023-02-02T02:45:01;101394.28;;;4.52;99.50
51359;BME280;37448;51.588;7.248;2023-02-02T02:47:03;101389.94;;;4.51;99.67
51359;BME280;37448;51.588;7.248;2023-02-02T02:49:07;101383.88;;;4.51;99.60
51359;BME280;37448;51.588;7.248;2023-02-02T02:51:41;101399.41;;;4.51;99.87
51359;BME280;37448;51.588;7.248;2023-02-02T02:53:45;101395.13;;;4.51;99.82
51359;BME280;37448;51.588;7.248;2023-02-02T02:55:48;101399.44;;;4.52;99.91
51359;BME280;37448;51.588;7.248;2023-02-02T02:58:05;101404.63;;;4.54;99.54
51359;BME280;37448;51.588;7.248;2023-02-02T03:00:46;101401.19;;;4.55;99.80
51359;BME280;37448;51.588;7.248;2023-02-02T03:02:56;101400.34;;;4.54;99.93
51359;BME280;37448;51.588;7.248;2023-02-02T03:05:23;101401.19;;;4.55;99.97
51359;BME280;37448;51.588;7.248;2023-02-02T03:07:28;101396.91;;;4.55;99.34
51359;BME280;37448;51.588;7.248;2023-02-02T03:09:35;101405.50;;;4.54;99.75
51359;BME280;37448;51.588;7.248;2023-02-02T03:11:38;101399.47;;;4.55;99.54
51359;BME280;37448;51.588;7.248;2023-02-02T03:13:40;101392.56;;;4.56;99.91
51359;BME280;37448;51.588;7.248;2023-02-02T03:15:42;101402.06;;;4.57;99.26
51359;BME280;37448;51.588;7.248;2023-02-02T03:17:45;101399.47;;;4.55;99.47
51359;BME280;37448;51.588;7.248;2023-02-02T03:19:46;101397.75;;;4.56;98.72
51359;BME280;37448;51.588;7.248;2023-02-02T03:21:47;101398.63;;;4.56;98.56
51359;BME280;37448;51.588;7.248;2023-02-02T03:23:47;101395.16;;;4.54;98.73
51359;BME280;37448;51.588;7.248;2023-02-02T03:25:48;101399.44;;;4.54;98.95
51359;BME280;37448;51.588;7.248;2023-02-02T03:27:49;101392.56;;;4.54;98.58
51359;BME280;37448;51.588;7.248;2023-02-02T03:29:49;101394.28;;;4.52;98.55
51359;BME280;37448;51.588;7.248;2023-02-02T03:31:50;101393.38;;;4.52;98.48
51359;BME280;37448;51.588;7.248;2023-02-02T03:33:50;101395.94;;;4.49;97.88
51359;BME280;37448;51.588;7.248;2023-02-02T03:35:50;101404.50;;;4.46;98.16
51359;BME280;37448;51.588;7.248;2023-02-02T03:37:51;101401.91;;;4.46;97.98
51359;BME280;37448;51.588;7.248;2023-02-02T03:39:52;101401.09;;;4.47;98.03
51359;BME280;37448;51.588;7.248;2023-02-02T03:41:52;101397.59;;;4.45;98.39
51359;BME280;37448;51.588;7.248;2023-02-02T03:43:52;101400.16;;;4.45;97.84
51359;BME280;37448;51.588;7.248;2023-02-02T03:45:57;101405.34;;;4.45;98.29
51359;BME280;37448;51.588;7.248;2023-02-02T03:47:58;101402.75;;;4.43;97.74
51359;BME280;37448;51.588;7.248;2023-02-02T03:49:58;101401.00;;;4.42;98.00
51359;BME280;37448;51.588;7.248;2023-02-02T03:51:58;101401.88;;;4.43;97.85
51359;BME280;37448;51.588;7.248;2023-02-02T03:54:00;101402.75;;;4.43;98.34
51359;BME280;37448;51.588;7.248;2023-02-02T03:56:01;101403.59;;;4.42;98.30
51359;BME280;37448;51.588;7.248;2023-02-02T03:58:02;101413.03;;;4.40;98.52
51359;BME280;37448;51.588;7.248;2023-02-02T04:00:03;101413.03;;;4.40;98.74
51359;BME280;37448;51.588;7.248;2023-02-02T04:02:12;101410.47;;;4.40;98.22
51359;BME280;37448;51.588;7.248;2023-02-02T04:04:12;101413.91;;;4.41;98.61
51359;BME280;37448;51.588;7.248;2023-02-02T04:06:13;101420.81;;;4.42;98.01
51359;BME280;37448;51.588;7.248;2023-02-02T04:08:13;101415.63;;;4.42;98.29
51359;BME280;37448;51.588;7.248;2023-02-02T04:10:13;101408.72;;;4.41;98.93
51359;BME280;37448;51.588;7.248;2023-02-02T04:12:14;101408.72;;;4.41;98.65
51359;BME280;37448;51.588;7.248;2023-02-02T04:14:14;101407.00;;;4.40;98.37
51359;BME280;37448;51.588;7.248;2023-02-02T04:16:15;101413.91;;;4.41;98.96
51359;BME280;37448;51.588;7.248;2023-02-02T04:18:15;101417.34;;;4.40;98.68
51359;BME280;37448;51.588;7.248;2023-02-02T04:20:15;101403.56;;;4.41;98.64
51359;BME280;37448;51.588;7.248;2023-02-02T04:22:16;101403.56;;;4.41;98.81
51359;BME280;37448;51.588;7.248;2023-02-02T04:24:16;101408.72;;;4.41;98.75
51359;BME280;37448;51.588;7.248;2023-02-02T04:26:16;101419.06;;;4.41;99.30
51359;BME280;37448;51.588;7.248;2023-02-02T04:28:17;101411.34;;;4.42;99.25
51359;BME280;37448;51.588;7.248;2023-02-02T04:30:17;101406.13;;;4.41;99.72
51359;BME280;37448;51.588;7.248;2023-02-02T04:32:19;101413.94;;;4.44;99.46
51359;BME280;37448;51.588;7.248;2023-02-02T04:34:19;101409.63;;;4.43;99.70
51359;BME280;37448;51.588;7.248;2023-02-02T04:36:19;101413.94;;;4.44;99.46
51359;BME280;37448;51.588;7.248;2023-02-02T04:38:20;101416.56;;;4.45;99.60
51359;BME280;37448;51.588;7.248;2023-02-02T04:40:21;101413.97;;;4.45;99.44
51359;BME280;37448;51.588;7.248;2023-02-02T04:42:21;101400.16;;;4.45;99.70
51359;BME280;37448;51.588;7.248;2023-02-02T04:44:22;101397.59;;;4.45;99.66
51359;BME280;37448;51.588;7.248;2023-02-02T04:46:23;101400.16;;;4.45;99.75
51359;BME280;37448;51.588;7.248;2023-02-02T04:48:24;101405.41;;;4.48;99.59
51359;BME280;37448;51.588;7.248;2023-02-02T04:50:25;101405.41;;;4.50;100.00
51359;BME280;37448;51.588;7.248;2023-02-02T04:52:25;101413.19;;;4.50;100.00
51359;BME280;37448;51.588;7.248;2023-02-02T04:54:26;101400.28;;;4.53;99.93
51359;BME280;37448;51.588;7.248;2023-02-02T04:56:26;101403.75;;;4.53;100.00
51359;BME280;37448;51.588;7.248;2023-02-02T04:58:28;101414.13;;;4.55;100.00
51359;BME280;37448;51.588;7.248;2023-02-02T05:00:28;101403.81;;;4.56;99.90
51359;BME280;37448;51.588;7.248;2023-02-02T05:02:28;101412.47;;;4.58;100.00
51359;BME280;37448;51.588;7.248;2023-02-02T05:04:29;101398.63;;;4.58;100.00
51359;BME280;37448;51.588;7.248;2023-02-02T05:06:29;101408.19;;;4.59;99.99
51359;BME280;37448;51.588;7.248;2023-02-02T05:08:30;101408.19;;;4.60;100.00
51359;BME280;37448;51.588;7.248;2023-02-02T05:10:30;101403.00;;;4.60;100.00
51359;BME280;37448;51.588;7.248;2023-02-02T05:12:31;101407.34;;;4.62;100.00
51359;BME280;37448;51.588;7.248;2023-02-02T05:14:31;101396.13;;;4.63;100.00
51359;BME280;37448;51.588;7.248;2023-02-02T05:16:31;101397.88;;;4.64;100.00
51359;BME280;37448;51.588;7.248;2023-02-02T05:18:32;101395.28;;;4.64;100.00
51359;BME280;37448;51.588;7.248;2023-02-02T05:20:32;101397.03;;;4.65;100.00
51359;BME280;37448;51.588;7.248;2023-02-02T05:22:33;101401.38;;;4.67;99.93
51359;BME280;37448;51.588;7.248;2023-02-02T05:24:34;101397.06;;;4.68;100.00
51359;BME280;37448;51.588;7.248;2023-02-02T05:26:34;101406.56;;;4.69;100.00
51359;BME280;37448;51.588;7.248;2023-02-02T05:28:35;101392.81;;;4.71;100.00
51359;BME280;37448;51.588;7.248;2023-02-02T05:30:38;101403.16;;;4.71;100.00
51359;BME280;37448;51.588;7.248;2023-02-02T05:32:38;101392.81;;;4.71;100.00
51359;BME280;37448;51.588;7.248;2023-02-02T05:34:39;101397.16;;;4.72;100.00
51359;BME280;37448;51.588;7.248;2023-02-02T05:36:39;101393.72;;;4.73;99.99
51359;BME280;37448;51.588;7.248;2023-02-02T05:38:39;101392.00;;;4.74;100.00
51359;BME280;37448;51.588;7.248;2023-02-02T05:40:40;101395.44;;;4.73;100.00
51359;BME280;37448;51.588;7.248;2023-02-02T05:42:40;101404.09;;;4.75;100.00
51359;BME280;37448;51.588;7.248;2023-02-02T05:44:41;101409.28;;;4.75;99.99
51359;BME280;37448;51.588;7.248;2023-02-02T05:46:41;101409.28;;;4.75;100.00
51359;BME280;37448;51.588;7.248;2023-02-02T05:48:41;101408.47;;;4.79;100.00
51359;BME280;37448;51.588;7.248;2023-02-02T05:50:46;101400.69;;;4.79;100.00
51359;BME280;37448;51.588;7.248;2023-02-02T05:52:49;101408.47;;;4.81;99.93
51359;BME280;37448;51.588;7.248;2023-02-02T05:54:50;101398.13;;;4.81;100.00
51359;BME280;37448;51.588;7.248;2023-02-02T05:56:52;101402.47;;;4.83;100.00
51359;BME280;37448;51.588;7.248;2023-02-02T05:58:53;101402.47;;;4.83;100.00
51359;BME280;37448;51.588;7.248;2023-02-02T06:00:54;101405.97;;;4.85;100.00
51359;BME280;37448;51.588;7.248;2023-02-02T06:02:54;101408.53;;;4.85;100.00
51359;BME280;37448;51.588;7.248;2023-02-02T06:04:54;101406.84;;;4.86;100.00
51359;BME280;37448;51.588;7.248;2023-02-02T06:06:55;101409.44;;;4.87;99.82
51359;BME280;37448;51.588;7.248;2023-02-02T06:08:55;101408.63;;;4.90;100.00
51359;BME280;37448;51.588;7.248;2023-02-02T06:10:56;101414.66;;;4.91;100.00
51359;BME280;37448;51.588;7.248;2023-02-02T06:12:57;101418.13;;;4.93;99.51
51359;BME280;37448;51.588;7.248;2023-02-02T06:14:57;101420.72;;;4.93;99.27
51359;BME280;37448;51.588;7.248;2023-02-02T06:16:58;101416.41;;;4.92;99.29
51359;BME280;37448;51.588;7.248;2023-02-02T06:18:58;101419.03;;;4.93;99.84
51359;BME280;37448;51.588;7.248;2023-02-02T06:20:59;101418.13;;;4.93;99.96
51359;BME280;37448;51.588;7.248;2023-02-02T06:23:00;101421.59;;;4.93;100.00
51359;BME280;37448;51.588;7.248;2023-02-02T06:25:00;101418.13;;;4.93;99.58
51359;BME280;37448;51.588;7.248;2023-02-02T06:27:03;101419.88;;;4.94;99.78
51359;BME280;37448;51.588;7.248;2023-02-02T06:29:03;101421.66;;;4.96;99.78
51359;BME280;37448;51.588;7.248;2023-02-02T06:31:05;101427.72;;;4.97;99.99
51359;BME280;37448;51.588;7.248;2023-02-02T06:33:06;101426.88;;;4.98;99.36
51359;BME280;37448;51.588;7.248;2023-02-02T06:35:07;101425.13;;;4.97;99.69
51359;BME280;37448;51.588;7.248;2023-02-02T06:37:07;101432.03;;;4.98;99.30
51359;BME280;37448;51.588;7.248;2023-02-02T06:39:08;101435.53;;;5.00;99.77
51359;BME280;37448;51.588;7.248;2023-02-02T06:41:08;101429.47;;;4.99;99.90
51359;BME280;37448;51.588;7.248;2023-02-02T06:43:09;101437.25;;;5.01;99.84
51359;BME280;37448;51.588;7.248;2023-02-02T06:45:14;101442.44;;;5.01;99.85
51359;BME280;37448;51.588;7.248;2023-02-02T06:47:14;101445.03;;;5.02;99.54
51359;BME280;37448;51.588;7.248;2023-02-02T06:49:14;101451.09;;;5.03;99.64
51359;BME280;37448;51.588;7.248;2023-02-02T06:51:17;101442.44;;;5.01;99.55
51359;BME280;37448;51.588;7.248;2023-02-02T06:53:18;101454.53;;;5.02;99.43
51359;BME280;37448;51.588;7.248;2023-02-02T06:55:22;101446.75;;;5.03;99.34
51359;BME280;37448;51.588;7.248;2023-02-02T06:57:22;101450.25;;;5.04;99.73
51359;BME280;37448;51.588;7.248;2023-02-02T06:59:22;101445.06;;;5.04;99.28
51359;BME280;37448;51.588;7.248;2023-02-02T07:01:23;101447.66;;;5.04;99.26
51359;BME280;37448;51.588;7.248;2023-02-02T07:03:23;101458.00;;;5.04;99.92
51359;BME280;37448;51.588;7.248;2023-02-02T07:05:26;101451.97;;;5.05;99.42
51359;BME280;37448;51.588;7.248;2023-02-02T07:07:30;101456.31;;;5.06;99.89
51359;BME280;37448;51.588;7.248;2023-02-02T07:09:32;101453.72;;;5.06;99.82
51359;BME280;37448;51.588;7.248;2023-02-02T07:11:33;101452.00;;;5.07;99.89
51359;BME280;37448;51.588;7.248;2023-02-02T07:13:34;101453.72;;;5.06;99.53
51359;BME280;37448;51.588;7.248;2023-02-02T07:15:38;101459.75;;;5.05;99.44
51359;BME280;37448;51.588;7.248;2023-02-02T07:17:38;101459.75;;;5.05;99.47
51359;BME280;37448;51.588;7.248;2023-02-02T07:19:39;101465.81;;;5.07;99.88
51359;BME280;37448;51.588;7.248;2023-02-02T07:21:39;101466.66;;;5.06;99.61
51359;BME280;37448;51.588;7.248;2023-02-02T07:23:39;101468.41;;;5.07;100.00
51359;BME280;37448;51.588;7.248;2023-02-02T07:25:40;101464.06;;;5.06;99.66
51359;BME280;37448;51.588;7.248;2023-02-02T07:27:40;101464.13;;;5.08;99.71
51359;BME280;37448;51.588;7.248;2023-02-02T07:29:40;101470.16;;;5.08;99.38
51359;BME280;37448;51.588;7.248;2023-02-02T07:31:41;101481.38;;;5.09;100.00
51359;BME280;37448;51.588;7.248;2023-02-02T07:33:42;101478.75;;;5.07;100.00
51359;BME280;37448;51.588;7.248;2023-02-02T07:35:43;101477.06;;;5.09;99.83
51359;BME280;37448;51.588;7.248;2023-02-02T07:37:50;101472.78;;;5.10;100.00
51359;BME280;37448;51.588;7.248;2023-02-02T07:39:50;101467.59;;;5.11;100.00
51359;BME280;37448;51.588;7.248;2023-02-02T07:41:51;101480.53;;;5.11;99.94
51359;BME280;37448;51.588;7.248;2023-02-02T07:44:04;101476.25;;;5.12;99.71
51359;BME280;37448;51.588;7.248;2023-02-02T07:46:06;101485.72;;;5.11;100.00
51359;BME280;37448;51.588;7.248;2023-02-02T07:48:09;101479.69;;;5.12;99.57
51359;BME280;37448;51.588;7.248;2023-02-02T07:50:09;101482.28;;;5.12;99.65
51359;BME280;37448;51.588;7.248;2023-02-02T07:52:10;101493.53;;;5.14;99.98
51359;BME280;37448;51.588;7.248;2023-02-02T07:54:10;101476.25;;;5.13;99.71
51359;BME280;37448;51.588;7.248;2023-02-02T07:56:19;101479.72;;;5.14;99.86
51359;BME280;37448;51.588;7.248;2023-02-02T07:58:19;101485.75;;;5.14;99.72
51359;BME280;37448;51.588;7.248;2023-02-02T08:00:20;101492.69;;;5.15;100.00
51359;BME280;37448;51.588;7.248;2023-02-02T08:02:21;101492.69;;;5.15;99.86
51359;BME280;37448;51.588;7.248;2023-02-02T08:04:21;101490.13;;;5.17;100.00
51359;BME280;37448;51.588;7.248;2023-02-02T08:06:24;101492.69;;;5.15;99.91
51359;BME280;37448;51.588;7.248;2023-02-02T08:08:25;101496.16;;;5.17;100.00
51359;BME280;37448;51.588;7.248;2023-02-02T08:10:26;101503.94;;;5.17;100.00
51359;BME280;37448;51.588;7.248;2023-02-02T08:12:26;101503.13;;;5.19;99.99
51359;BME280;37448;51.588;7.248;2023-02-02T08:14:27;101510.03;;;5.20;100.00
51359;BME280;37448;51.588;7.248;2023-02-02T08:16:29;101506.53;;;5.17;100.00
51359;BME280;37448;51.588;7.248;2023-02-02T08:18:31;101510.03;;;5.20;100.00
51359;BME280;37448;51.588;7.248;2023-02-02T08:20:33;101507.44;;;5.20;100.00
51359;BME280;37448;51.588;7.248;2023-02-02T08:22:33;101511.78;;;5.21;100.00
51359;BME280;37448;51.588;7.248;2023-02-02T08:24:34;101501.41;;;5.21;100.00
51359;BME280;37448;51.588;7.248;2023-02-02T08:26:39;101507.47;;;5.23;100.00
51359;BME280;37448;51.588;7.248;2023-02-02T08:28:41;101513.56;;;5.25;100.00
51359;BME280;37448;51.588;7.248;2023-02-02T08:30:41;101518.72;;;5.25;100.00
51359;BME280;37448;51.588;7.248;2023-02-02T08:32:42;101525.66;;;5.26;99.97
51359;BME280;37448;51.588;7.248;2023-02-02T08:34:42;101523.06;;;5.26;99.93
51359;BME280;37448;51.588;7.248;2023-02-02T08:36:42;101522.19;;;5.25;100.00
51359;BME280;37448;51.588;7.248;2023-02-02T08:38:43;101518.72;;;5.25;99.86
51359;BME280;37448;51.588;7.248;2023-02-02T08:40:44;101525.66;;;5.26;100.00
51359;BME280;37448;51.588;7.248;2023-02-02T08:42:44;101527.38;;;5.27;100.00
51359;BME280;37448;51.588;7.248;2023-02-02T08:44:46;101530.00;;;5.28;100.00
51359;BME280;37448;51.588;7.248;2023-02-02T08:46:46;101531.72;;;5.29;100.00
51359;BME280;37448;51.588;7.248;2023-02-02T08:48:47;101529.13;;;5.29;99.87
51359;BME280;37448;51.588;7.248;2023-02-02T08:50:52;101540.38;;;5.30;100.00
51359;BME280;37448;51.588;7.248;2023-02-02T08:52:53;101542.97;;;5.30;100.00
51359;BME280;37448;51.588;7.248;2023-02-02T08:54:53;101553.38;;;5.31;100.00
51359;BME280;37448;51.588;7.248;2023-02-02T08:56:55;101545.59;;;5.33;100.00
51359;BME280;37448;51.588;7.248;2023-02-02T08:58:56;101549.94;;;5.34;99.93
51359;BME280;37448;51.588;7.248;2023-02-02T09:01:06;101556.00;;;5.35;100.00
51359;BME280;37448;51.588;7.248;2023-02-02T09:03:07;101551.69;;;5.35;100.00
51359;BME280;37448;51.588;7.248;2023-02-02T09:05:07;101561.19;;;5.35;100.00
51359;BME280;37448;51.588;7.248;2023-02-02T09:07:08;101568.09;;;5.36;99.93
51359;BME280;37448;51.588;7.248;2023-02-02T09:09:12;101568.09;;;5.36;100.00
51359;BME280;37448;51.588;7.248;2023-02-02T09:11:15;101569.81;;;5.35;100.00
51359;BME280;37448;51.588;7.248;2023-02-02T09:13:16;101573.28;;;5.36;100.00
51359;BME280;37448;51.588;7.248;2023-02-02T09:15:16;101575.88;;;5.37;100.00
51359;BME280;37448;51.588;7.248;2023-02-02T09:17:17;101580.22;;;5.37;100.00
51359;BME280;37448;51.588;7.248;2023-02-02T09:19:17;101589.72;;;5.39;100.00
51359;BME280;37448;51.588;7.248;2023-02-02T09:21:18;101584.53;;;5.39;100.00
51359;BME280;37448;51.588;7.248;2023-02-02T09:23:19;101582.84;;;5.41;100.00
51359;BME280;37448;51.588;7.248;2023-02-02T09:25:20;101591.53;;;5.43;100.00
51359;BME280;37448;51.588;7.248;2023-02-02T09:27:20;101591.53;;;5.43;100.00
51359;BME280;37448;51.588;7.248;2023-02-02T09:29:21;101595.03;;;5.45;100.00
51359;BME280;37448;51.588;7.248;2023-02-02T09:31:22;101598.47;;;5.46;100.00
51359;BME280;37448;51.588;7.248;2023-02-02T09:33:22;101592.44;;;5.47;99.83
51359;BME280;37448;51.588;7.248;2023-02-02T09:35:23;101603.69;;;5.48;100.00
51359;BME280;37448;51.588;7.248;2023-02-02T09:37:23;101601.09;;;5.48;100.00
51359;BME280;37448;51.588;7.248;2023-02-02T09:39:24;101614.09;;;5.51;100.00
51359;BME280;37448;51.588;7.248;2023-02-02T09:43:49;101610.69;;;5.55;100.00
51359;BME280;37448;51.588;7.248;2023-02-02T09:46:03;101615.03;;;5.56;100.00
51359;BME280;37448;51.588;7.248;2023-02-02T09:50:27;101620.28;;;5.60;100.00
51359;BME280;37448;51.588;7.248;2023-02-02T09:52:45;101622.03;;;5.62;99.94
51359;BME280;37448;51.588;7.248;2023-02-02T09:54:51;101633.25;;;5.62;100.00
51359;BME280;37448;51.588;7.248;2023-02-02T09:56:55;101629.81;;;5.63;100.00
51359;BME280;37448;51.588;7.248;2023-02-02T09:59:00;101635.84;;;5.62;99.88
51359;BME280;37448;51.588;7.248;2023-02-02T10:03:17;101653.94;;;5.59;99.90
51359;BME280;37448;51.588;7.248;2023-02-02T10:05:23;101645.31;;;5.60;100.00
51359;BME280;37448;51.588;7.248;2023-02-02T10:07:30;101647.91;;;5.60;99.74
51359;BME280;37448;51.588;7.248;2023-02-02T10:09:38;101649.66;;;5.59;99.95
51359;BME280;37448;51.588;7.248;2023-02-02T10:12:05;101651.38;;;5.60;99.79
51359;BME280;37448;51.588;7.248;2023-02-02T10:16:26;101661.75;;;5.60;100.00
51359;BME280;37448;51.588;7.248;2023-02-02T10:18:41;101663.50;;;5.62;100.00
51359;BME280;37448;51.588;7.248;2023-02-02T10:20:51;101655.69;;;5.60;100.00
51359;BME280;37448;51.588;7.248;2023-02-02T10:22:58;101666.06;;;5.60;99.88
51359;BME280;37448;51.588;7.248;2023-02-02T10:24:59;101667.78;;;5.61;100.00
51359;BME280;37448;51.588;7.248;2023-02-02T10:27:02;101679.03;;;5.62;99.58
51359;BME280;37448;51.588;7.248;2023-02-02T10:31:41;101679.03;;;5.62;99.95
51359;BME280;37448;51.588;7.248;2023-02-02T10:33:43;101678.16;;;5.61;99.24
51359;BME280;37448;51.588;7.248;2023-02-02T10:41:00;101683.34;;;5.61;99.69
51359;BME280;37448;51.588;7.248;2023-02-02T10:45:42;101685.97;;;5.64;99.96
51359;BME280;37448;51.588;7.248;2023-02-02T10:47:43;101689.47;;;5.65;99.97
51359;BME280;37448;51.588;7.248;2023-02-02T10:49:44;101681.69;;;5.65;99.62
51359;BME280;37448;51.588;7.248;2023-02-02T10:51:51;101686.88;;;5.65;100.00
51359;BME280;37448;51.588;7.248;2023-02-02T10:53:56;101685.13;;;5.65;99.88
51359;BME280;37448;51.588;7.248;2023-02-02T10:56:02;101683.47;;;5.67;100.00
51359;BME280;37448;51.588;7.248;2023-02-02T11:00:29;101692.91;;;5.65;100.00
51359;BME280;37448;51.588;7.248;2023-02-02T11:02:31;101689.47;;;5.66;99.97
51359;BME280;37448;51.588;7.248;2023-02-02T11:04:32;101688.69;;;5.70;99.96
51359;BME280;37448;51.588;7.248;2023-02-02T11:06:51;101688.69;;;5.70;99.87
51359;BME280;37448;51.588;7.248;2023-02-02T11:08:53;101687.84;;;5.71;100.00
51359;BME280;37448;51.588;7.248;2023-02-02T11:11:12;101693.88;;;5.72;100.00
51359;BME280;37448;51.588;7.248;2023-02-02T11:13:23;101693.88;;;5.70;99.73
51359;BME280;37448;51.588;7.248;2023-02-02T11:15:28;101700.81;;;5.73;100.00
51359;BME280;37448;51.588;7.248;2023-02-02T11:17:29;101701.69;;;5.73;100.00
51359;BME280;37448;51.588;7.248;2023-02-02T11:19:31;101699.09;;;5.73;99.77
51359;BME280;37448;51.588;7.248;2023-02-02T11:21:33;101703.44;;;5.74;99.96
51359;BME280;37448;51.588;7.248;2023-02-02T11:23:34;101708.63;;;5.76;100.00
51359;BME280;37448;51.588;7.248;2023-02-02T11:25:36;101711.22;;;5.74;100.00
51359;BME280;37448;51.588;7.248;2023-02-02T11:27:40;101698.25;;;5.74;99.71